• Join FlightAware (Why Join?)
  • Login
  • US Flag 
09:30AM EDT


 

Airport Tracker/Info


-or-


 

Live Flight TrackerFlight Track Log ✈ DAL374 ✈ 21-Oct-2013 ✈ MSLP / SAL - KATL

Flight Track Log - Related Links

Times and Time Zones

All times are in EDT time to prevent confusion due to time zone crossing. See the DAL374 flight status page for this flight to view local times or setup timezone preferences in your user account.

Time Position Orientation Groundspeed Altitude Reporting Facility
EDT Latitude Longitude Course Direction KTS MPH feet Rate Location/Type
03:01PM 13.8215 -89.0800 356° North  Level FlightAware Approximate
03:02PM 13.9484 -89.0881 356° North  Level FlightAware Approximate
03:03PM 14.0752 -89.0962 356° North  Level FlightAware Approximate
03:04PM 14.2021 -89.1044 356° North  Level FlightAware Approximate
03:05PM 14.3289 -89.1125 356° North  Level FlightAware Approximate
03:06PM 14.4558 -89.1207 356° North  Level FlightAware Approximate
03:07PM 14.5826 -89.1288 356° North  Level FlightAware Approximate
03:08PM 14.7095 -89.1370 356° North  Level FlightAware Approximate
03:09PM 14.8363 -89.1452 356° North  Level FlightAware Approximate
03:10PM 14.9632 -89.1533 356° North  Level FlightAware Approximate
03:11PM 15.0900 -89.1615 356° North  Level FlightAware Approximate
03:12PM 15.2169 -89.1697 356° North  Level FlightAware Approximate
03:13PM 15.3437 -89.1780 356° North  Level FlightAware Approximate
03:14PM 15.4706 -89.1862 356° North  Level FlightAware Approximate
03:15PM 15.5947 -89.1577 356° North  Level Estimated
03:16PM 15.7212 -89.1696 355° North  Level FlightAware Approximate
03:17PM 15.8478 -89.1815 355° North  Level FlightAware Approximate
03:18PM 15.9744 -89.1934 355° North  Level FlightAware Approximate
03:19PM 16.1010 -89.2053 355° North  Level FlightAware Approximate
03:20PM 16.2276 -89.2172 355° North  Level FlightAware Approximate
03:21PM 16.3541 -89.2291 355° North  Level FlightAware Approximate
03:22PM 16.4807 -89.2411 355° North  Level FlightAware Approximate
03:23PM 16.6073 -89.2531 355° North  Level FlightAware Approximate
03:24PM 16.7339 -89.2651 355° North  Level FlightAware Approximate
03:25PM 16.8605 -89.2771 355° North  Level FlightAware Approximate
03:26PM 16.9870 -89.2891 355° North  Level FlightAware Approximate
03:27PM 17.1136 -89.3011 355° North  Level FlightAware Approximate
03:28PM 17.2402 -89.3132 355° North  Level FlightAware Approximate
03:29PM 17.3654 -89.3251 355° North  Level FlightAware Approximate
03:30PM 17.4905 -89.3370 355° North  Level FlightAware Approximate
03:31PM 17.6123 -89.3044 356° North  Level Estimated
03:32PM 17.7375 -89.3158 355° North  Level FlightAware Approximate
03:33PM 17.8627 -89.3271 355° North  Level FlightAware Approximate
03:34PM 17.9879 -89.3385 355° North  Level FlightAware Approximate
03:35PM 18.1131 -89.3499 355° North  Level FlightAware Approximate
03:36PM 18.2383 -89.3613 355° North  Level FlightAware Approximate
03:37PM 18.3635 -89.3727 355° North  Level FlightAware Approximate
03:38PM 18.4888 -89.3841 355° North  Level FlightAware Approximate
03:39PM 18.6140 -89.3956 355° North  Level FlightAware Approximate
03:40PM 18.7392 -89.4071 355° North  Level FlightAware Approximate
03:41PM 18.8644 -89.4185 355° North  Level FlightAware Approximate
03:42PM 18.9896 -89.4301 355° North  Level FlightAware Approximate
03:43PM 19.1148 -89.4416 355° North  Level FlightAware Approximate
03:44PM 19.2400 -89.4531 355° North  Level FlightAware Approximate
03:45PM 19.3652 -89.4647 355° North  Level FlightAware Approximate
03:46PM 19.4904 -89.4762 355° North  Level FlightAware Approximate
03:47PM 19.6156 -89.4878 355° North  Level FlightAware Approximate
03:48PM 19.7408 -89.4995 355° North  Level FlightAware Approximate
03:49PM 19.8660 -89.5111 355° North  Level FlightAware Approximate
03:50PM 19.9912 -89.5227 355° North  Level FlightAware Approximate
03:51PM 20.1164 -89.5344 355° North  Level FlightAware Approximate
03:52PM 20.2416 -89.5461 355° North  Level FlightAware Approximate
03:53PM 20.3668 -89.5578 355° North  Level FlightAware Approximate
03:54PM 20.4920 -89.5695 355° North  Level FlightAware Approximate
03:55PM 20.6115 -89.5278 356° North  Level Estimated
03:56PM 20.7361 -89.5447 353° North  Level FlightAware Approximate
03:57PM 20.8608 -89.5615 353° North  Level FlightAware Approximate
03:58PM 20.9855 -89.5784 353° North  Level FlightAware Approximate
03:59PM 21.1102 -89.5954 353° North  Level FlightAware Approximate
04:00PM 21.2349 -89.6123 353° North  Level FlightAware Approximate
04:01PM 21.3595 -89.6293 353° North  Level FlightAware Approximate
04:02PM 21.4781 -89.5843 356° North  Level Estimated
04:03PM 21.6021 -89.6060 351° North  Level FlightAware Approximate
04:04PM 21.7262 -89.6276 351° North  Level FlightAware Approximate
04:05PM 21.8502 -89.6494 351° North  Level FlightAware Approximate
04:06PM 21.9743 -89.6711 351° North  Level FlightAware Approximate
04:07PM 22.0920 -89.6236 358° North  Level Estimated
04:08PM 22.2157 -89.6471 350° North  Level FlightAware Approximate
04:09PM 22.3395 -89.6708 350° North  Level FlightAware Approximate
04:10PM 22.4568 -89.6218 357° North  Level Estimated
04:11PM 22.5808 -89.6434 351° North  Level FlightAware Approximate
04:12PM 22.7049 -89.6651 351° North  Level FlightAware Approximate
04:13PM 22.8290 -89.6868 351° North  Level FlightAware Approximate
04:14PM 22.9531 -89.7086 351° North  Level FlightAware Approximate
04:15PM 23.0693 -89.6567 357° North  Level Estimated
04:16PM 23.1935 -89.6780 351° North  Level FlightAware Approximate
04:17PM 23.3176 -89.6994 351° North  Level FlightAware Approximate
04:18PM 23.4417 -89.7207 351° North  Level FlightAware Approximate
04:19PM 23.5659 -89.7421 351° North  Level FlightAware Approximate
04:20PM 23.6810 -89.6872 357° North  Level Estimated
04:21PM 23.8050 -89.7096 351° North  Level FlightAware Approximate
04:22PM 23.9289 -89.7321 351° North  Level FlightAware Approximate
04:23PM 24.0529 -89.7547 351° North  Level FlightAware Approximate
04:24PM 24.1769 -89.7773 351° North  Level FlightAware Approximate
04:25PM 24.2907 -89.7188 357° North  Level Estimated
04:26PM 24.4158 -89.7317 355° North  Level FlightAware Approximate
04:27PM 24.5410 -89.7445 355° North  Level FlightAware Approximate
04:28PM 24.6661 -89.7574 355° North  Level FlightAware Approximate
04:29PM 24.7912 -89.7703 355° North  Level FlightAware Approximate
04:30PM 24.9164 -89.7832 355° North  Level FlightAware Approximate
04:31PM 25.0415 -89.7962 355° North  Level FlightAware Approximate
04:32PM 25.1666 -89.8092 355° North  Level FlightAware Approximate
04:33PM 25.2917 -89.8222 355° North  Level FlightAware Approximate
04:34PM 25.4169 -89.8352 355° North  Level FlightAware Approximate
04:35PM 25.5420 -89.8483 355° North  Level FlightAware Approximate
04:36PM 25.6661 -89.8613 355° North  Level FlightAware Approximate
04:37PM 25.7902 -89.8743 355° North  Level FlightAware Approximate
04:38PM 25.9143 -89.8873 355° North  Level FlightAware Approximate
04:39PM 26.0385 -89.9004 355° North  Level FlightAware Approximate
04:40PM 26.1626 -89.9135 355° North  Level FlightAware Approximate
04:41PM 26.2867 -89.9266 355° North  Level FlightAware Approximate
04:42PM 26.4118 -89.9371 357° North  Level FlightAware Approximate
04:43PM 26.5363 -89.9446 357° North  Level FlightAware Approximate
04:44PM 26.6608 -89.9521 357° North  Level FlightAware Approximate
04:45PM 26.7853 -89.9597 357° North  Level FlightAware Approximate
04:46PM 26.9098 -89.9673 357° North  Level FlightAware Approximate
04:47PM 27.0343 -89.9749 357° North  Level FlightAware Approximate
04:47PM 26.9231 -89.9775 357° North 484 557 36,000  Level Houston Center
04:48PM 27.1588 -89.9825 357° North  Level FlightAware Approximate
04:48PM 27.0564 -89.9881 356° North 482 555 35,900  Level Houston Center
04:49PM 27.2832 -89.9901 357° North  Level FlightAware Approximate
04:49PM 27.1908 -89.9981 356° North 482 555 35,900  Level Houston Center
04:50PM 27.4077 -89.9978 357° North  Level FlightAware Approximate
04:50PM 27.3525 -90.0061 357° North 483 556 35,900  Level Houston Center
04:51PM 27.5322 -90.0054 357° North  Level FlightAware Approximate
04:51PM 27.4869 -90.0142 357° North 483 556 36,000  Level Houston Center
04:52PM 27.6567 -90.0131 357° North  Level FlightAware Approximate
04:52PM 27.6239 -90.0206 358° North 488 562 36,500  Level Houston Center
04:53PM 27.7812 -90.0208 357° North  Level FlightAware Approximate
04:53PM 27.7567 -89.9633 21° North 500 575 37,000  Level Houston Center
04:54PM 27.8903 -89.9086 20° North 512 589 37,000  Level Houston Center
04:56PM 28.0219 -89.8500 21° North 510 587 37,000  Level Houston Center
04:57PM 28.1803 -89.7775 22° Northeast 512 589 37,000  Level Houston Center
04:58PM 28.3136 -89.7197 21° North 511 588 37,000  Level Houston Center
04:59PM 28.4464 -89.6628 21° North 511 588 37,000  Level Houston Center
05:00PM 28.5789 -89.6061 21° North 507 583 37,000 -60 Level Houston Center
05:01PM 28.7106 -89.5483 21° North 507 583 36,900 -60 Descending Houston Center
05:02PM 28.8681 -89.4792 21° North 505 581 36,900  Level Houston Center
05:03PM 28.9997 -89.4236 20° North 506 582 37,000  Climbing Houston Center
05:04PM 29.1311 -89.3658 21° North 505 581 37,000  Level Houston Center
05:05PM 29.2636 -89.3069 21° North 509 586 37,000  Level Houston Center
05:06PM 29.3969 -89.2489 21° North 513 590 37,000  Level Houston Center
05:07PM 29.5281 -89.1906 21° North 508 585 37,000  Level Houston Center
05:08PM 29.6867 -89.1203 21° North 510 587 37,000  Level Houston Center
05:09PM 29.8214 -89.0600 21° North 519 597 37,000  Level Houston Center
05:10PM 29.9533 -89.0011 21° North 514 592 37,000  Level Houston Center
05:11PM 30.0833 -88.9422 21° North 506 582 37,000  Level Houston Center
05:12PM 30.2236 -88.8419 32° Northeast 518 596 37,000  Level Houston Center
05:13PM 30.3461 -88.7483 33° Northeast 525 604 37,000  Level Houston Center
05:14PM 30.4675 -88.6567 33° Northeast 522 601 37,000  Level Houston Center
05:15PM 30.5894 -88.5639 33° Northeast 524 603 37,000  Level Houston Center
05:16PM 30.7153 -88.4664 34° Northeast 525 604 37,000  Level Houston Center
05:17PM 30.8369 -88.3733 33° Northeast 524 603 37,000  Level Houston Center
05:18PM 30.9803 -88.2500 36° Northeast 547 629 37,000  Level Houston Center
05:19PM 31.0786 -88.1119 50° Northeast 557 641 37,000  Level Houston Center
05:20PM 31.1756 -87.9747 50° Northeast 549 632 37,000  Level Houston Center
05:21PM 31.2794 -87.8250 51° Northeast 547 629 37,000  Level Houston Center
05:22PM 31.3761 -87.6867 51° Northeast 548 631 37,000 -120 Level Houston Center
05:23PM 31.4736 -87.5472 51° Northeast 552 635 36,800 -600 Descending Houston Center
05:24PM 31.5694 -87.4075 51° Northeast 552 635 35,800 -1,020 Descending Houston Center
05:26PM 31.6642 -87.2686 51° Northeast 548 631 34,800 -1,020 Descending Houston Center
05:27PM 31.7753 -87.1072 51° Northeast 531 611 33,700 -1,020 Descending Houston Center
05:28PM 31.8683 -86.9731 51° Northeast 529 609 32,700 -960 Descending Houston Center
05:29PM 31.9603 -86.8350 52° Northeast 536 617 31,700 -1,020 Descending Houston Center
05:30PM 32.0542 -86.6997 51° Northeast 535 616 30,700 -1,020 Descending Houston Center
05:31PM 32.1700 -86.5392 50° Northeast 534 615 29,500 -1,020 Descending Atlanta Center
05:32PM 32.2644 -86.4042 50° Northeast 534 615 28,500 -960 Descending Atlanta Center
05:33PM 32.3486 -86.2639 55° Northeast 529 609 27,600 -960 Descending Atlanta Center
05:34PM 32.4364 -86.1308 52° Northeast 522 601 26,600 -1,440 Descending Atlanta Center
05:35PM 32.5286 -85.9925 52° Northeast 522 601 24,800 -2,580 Descending Atlanta Center
05:36PM 32.6203 -85.8564 51° Northeast 528 608 21,500 -2,160 Descending Atlanta Center
05:37PM 32.7078 -85.7250 52° Northeast 523 602 20,500 -1,200 Descending Atlanta Center
05:38PM 32.7931 -85.5981 51° Northeast 506 582 19,100 -1,620 Descending Atlanta Center
05:39PM 32.8675 -85.4806 53° Northeast 474 545 17,300 -1,920 Descending Atlanta Center
05:40PM 32.9397 -85.3731 51° Northeast 438 504 15,300 -1,680 Descending Atlanta Center
05:41PM 33.0139 -85.2650 51° Northeast 418 481 14,000 -660 Descending Atlanta Center
05:42PM 33.0900 -85.1594 49° Northeast 421 484 14,000  Level Atlanta Center
05:43PM 33.1808 -85.0392 48° Northeast 433 498 14,000 -60 Level Atlanta Center
05:44PM 33.2608 -84.9331 48° Northeast 433 498 13,900 -900 Descending Atlanta Center
05:45PM 33.3344 -84.8369 47° Northeast 416 479 12,300 -960 Descending Atlanta Center
05:46PM 33.4269 -84.7656 33° Northeast 394 453 12,000 -180 Descending Atlanta Center
05:47PM 33.5253 -84.7092 26° Northeast 394 453 12,000  Level Atlanta Center
05:48PM 33.6333 -84.6333 30° Northeast 428 493 12,000  Level Atlanta TRACON
05:49PM 33.6833 -84.5500 54° Northeast 365 420 12,000 -840 Level Atlanta TRACON
05:50PM 33.7333 -84.4500 59° Northeast 320 368 10,400 -1,800 Descending Atlanta TRACON
05:51PM 33.7333 -84.3500 90° East 297 342 8,400 -2,220 Descending Atlanta TRACON
05:52PM 33.7333 -84.2500 90° East 283 326 6,000 -2,340 Descending Atlanta TRACON
05:53PM 33.6833 -84.2167 151° Southeast 274 315 4,000 -1,500 Descending Atlanta TRACON
05:54PM 33.6500 -84.2667 231° Southwest 213 245 3,000 -900 Descending Atlanta TRACON
05:55PM 33.6500 -84.3333 270° West 177 204 2,200 -840 Descending Atlanta TRACON
05:56PM 33.6500 -84.3833 270° West 138 159 1,500 -780 Descending Atlanta TRACON